createdAt,value
2022-12-16T00:01:51.676Z,9.90
2022-12-16T00:06:54.911Z,8.53
2022-12-16T00:11:57.790Z,8.33
2022-12-16T00:17:01.874Z,7.80
2022-12-16T00:22:04.651Z,8.33
2022-12-16T00:27:07.444Z,7.57
2022-12-16T00:32:12.918Z,7.23
2022-12-16T00:37:15.620Z,7.83
2022-12-16T00:42:18.310Z,7.43
2022-12-16T00:47:22.385Z,7.43
2022-12-16T00:52:25.139Z,8.17
2022-12-16T00:57:27.843Z,7.87
2022-12-16T01:02:32.021Z,7.47
2022-12-16T01:07:35.163Z,7.60
2022-12-16T01:12:38.556Z,8.70
2022-12-16T01:17:42.893Z,8.30
2022-12-16T01:22:45.684Z,9.90
2022-12-16T01:27:48.571Z,9.23
2022-12-16T01:32:52.661Z,9.23
2022-12-16T01:37:55.376Z,9.00
2022-12-16T01:42:58.286Z,9.47
2022-12-16T01:48:05.653Z,9.73
2022-12-16T01:53:08.585Z,10.17
2022-12-16T01:58:14.319Z,9.93
2022-12-16T02:03:18.560Z,10.13
2022-12-16T02:08:21.440Z,10.63
2022-12-16T02:13:29.625Z,9.80
2022-12-16T02:18:43.127Z,8.60
2022-12-16T02:24:02.858Z,9.73
2022-12-16T02:29:20.927Z,8.40
2022-12-16T02:34:31.810Z,8.03
2022-12-16T02:39:39.045Z,8.40
2022-12-16T02:44:47.489Z,8.87
2022-12-16T02:49:53.550Z,8.10
2022-12-16T02:55:01.470Z,8.80
2022-12-16T03:00:07.391Z,8.43
2022-12-16T03:05:16.123Z,8.07
2022-12-16T03:10:21.135Z,7.57
2022-12-16T03:15:26.434Z,8.13
2022-12-16T03:20:34.356Z,7.60
2022-12-16T03:25:38.584Z,6.87
2022-12-16T03:30:45.842Z,8.17
2022-12-16T03:35:52.161Z,7.63
2022-12-16T03:40:56.327Z,7.90
2022-12-16T03:46:03.021Z,9.17
2022-12-16T03:51:07.486Z,7.70
2022-12-16T03:56:10.548Z,8.40
2022-12-16T04:01:13.517Z,7.57
2022-12-16T04:06:18.698Z,8.53
2022-12-16T04:11:39.048Z,7.33
2022-12-16T04:16:59.233Z,7.83
2022-12-16T04:22:20.981Z,7.73
2022-12-16T04:27:27.637Z,8.23
2022-12-16T04:32:52.187Z,8.33
2022-12-16T04:38:13.807Z,7.50
2022-12-16T04:43:34.621Z,8.20
2022-12-16T04:48:55.305Z,7.93
2022-12-16T04:54:16.934Z,8.43
2022-12-16T04:59:37.145Z,7.73
2022-12-16T05:04:57.609Z,8.00
2022-12-16T05:10:19.030Z,8.00
2022-12-16T05:15:39.400Z,7.70
2022-12-16T05:20:59.826Z,8.10
2022-12-16T05:26:21.587Z,7.90
2022-12-16T05:31:41.829Z,7.07
2022-12-16T05:37:02.454Z,7.70
2022-12-16T05:42:24.365Z,7.70
2022-12-16T05:47:45.259Z,7.67
2022-12-16T05:53:08.825Z,7.17
2022-12-16T05:58:30.258Z,7.97
2022-12-16T06:03:50.703Z,6.73
2022-12-16T06:09:11.205Z,7.57
2022-12-16T06:14:32.803Z,10.97
2022-12-16T06:19:52.927Z,7.87
2022-12-16T06:25:13.159Z,7.43
2022-12-16T06:30:34.795Z,8.00
2022-12-16T06:35:55.000Z,7.50
2022-12-16T06:41:20.742Z,8.77
2022-12-16T06:46:42.043Z,7.17
2022-12-16T06:52:02.426Z,7.10
2022-12-16T06:57:22.645Z,7.80
2022-12-16T07:02:44.358Z,6.50
2022-12-16T07:08:08.312Z,8.07
2022-12-16T07:13:28.534Z,8.10
2022-12-16T07:18:49.967Z,7.97
2022-12-16T07:24:10.200Z,7.13
2022-12-16T07:29:30.317Z,7.60
2022-12-16T07:34:52.318Z,8.50
2022-12-16T07:40:12.528Z,8.27
2022-12-16T07:45:32.083Z,6.93
2022-12-16T07:50:53.721Z,8.27
2022-12-16T07:56:12.959Z,7.60
2022-12-16T08:01:33.869Z,8.70
2022-12-16T08:06:55.592Z,8.60
2022-12-16T08:12:15.966Z,8.20
2022-12-16T08:17:41.377Z,8.83
2022-12-16T08:23:02.782Z,9.00
2022-12-16T08:28:23.474Z,8.70
2022-12-16T08:33:43.772Z,8.63
2022-12-16T08:39:19.742Z,7.60
2022-12-16T08:44:40.053Z,7.30
2022-12-16T08:50:02.162Z,8.03
2022-12-16T08:55:29.528Z,8.30
2022-12-16T09:00:50.041Z,8.77
2022-12-16T09:06:10.828Z,8.37
2022-12-16T09:11:47.278Z,9.43
2022-12-16T09:17:07.839Z,8.77
2022-12-16T09:22:29.842Z,7.90
2022-12-16T09:27:51.580Z,7.87
2022-12-16T09:33:11.824Z,8.97
2022-12-16T09:38:32.479Z,8.43
2022-12-16T09:44:05.277Z,8.97
2022-12-16T09:49:33.339Z,8.60
2022-12-16T09:54:56.054Z,9.60
2022-12-16T10:00:19.568Z,10.70
2022-12-16T10:05:48.442Z,10.50
2022-12-16T10:11:14.775Z,10.17
2022-12-16T10:16:41.835Z,9.93
2022-12-16T10:22:07.312Z,9.50
2022-12-16T10:27:32.848Z,10.27
2022-12-16T10:32:58.545Z,10.77
2022-12-16T10:38:19.083Z,11.07
2022-12-16T10:43:44.711Z,10.07
2022-12-16T10:49:06.668Z,11.10
2022-12-16T10:54:43.298Z,11.63
2022-12-16T11:00:07.811Z,13.17
2022-12-16T11:05:49.057Z,11.80
2022-12-16T11:11:09.485Z,13.13
2022-12-16T11:16:33.083Z,12.40
2022-12-16T11:21:54.642Z,12.67
2022-12-16T11:27:16.701Z,12.67
2022-12-16T11:32:39.056Z,13.87
2022-12-16T11:38:01.320Z,14.50
2022-12-16T11:43:22.789Z,15.43
2022-12-16T11:48:52.445Z,14.27
2022-12-16T11:54:18.257Z,14.33
2022-12-16T11:59:43.787Z,15.43
2022-12-16T12:05:06.912Z,15.70
2022-12-16T12:10:36.920Z,15.70
2022-12-16T12:16:03.243Z,15.63
2022-12-16T12:21:29.320Z,15.20
2022-12-16T12:26:52.213Z,16.03
2022-12-16T12:32:21.341Z,14.93
2022-12-16T12:37:45.136Z,17.13
2022-12-16T12:43:09.274Z,14.97
2022-12-16T12:48:34.282Z,15.47
2022-12-16T12:54:01.156Z,15.23
2022-12-16T12:59:37.521Z,15.23
2022-12-16T13:04:58.044Z,15.90
2022-12-16T13:10:36.835Z,15.87
2022-12-16T13:15:59.086Z,16.53
2022-12-16T13:21:19.301Z,15.00
2022-12-16T13:26:41.366Z,14.00
2022-12-16T13:32:18.377Z,15.00
2022-12-16T13:37:42.012Z,14.90
2022-12-16T13:43:11.317Z,14.73
2022-12-16T13:48:51.431Z,13.63
2022-12-16T13:54:12.600Z,15.10
2022-12-16T13:59:32.211Z,14.77
2022-12-16T14:04:56.672Z,14.47
2022-12-16T14:10:16.910Z,14.40
2022-12-16T14:15:41.669Z,13.80
2022-12-16T14:21:07.393Z,14.57
2022-12-16T14:26:30.259Z,14.07
2022-12-16T14:31:55.176Z,17.50
2022-12-16T14:37:22.275Z,14.57
2022-12-16T14:42:45.951Z,14.00
2022-12-16T14:48:06.461Z,12.50
2022-12-16T14:53:39.019Z,16.70
2022-12-16T14:58:59.680Z,15.30
2022-12-16T15:04:22.454Z,12.43
2022-12-16T15:09:46.849Z,12.70
2022-12-16T15:15:07.671Z,15.33
2022-12-16T15:20:34.925Z,13.33
2022-12-16T15:26:02.113Z,15.37
2022-12-16T15:31:32.808Z,13.00
2022-12-16T15:36:55.115Z,10.43
2022-12-16T15:42:16.619Z,11.00
2022-12-16T15:47:44.825Z,12.23
2022-12-16T15:53:04.939Z,13.57
2022-12-16T15:58:32.738Z,11.60
2022-12-16T16:03:53.579Z,10.33
2022-12-16T16:09:13.661Z,11.17
2022-12-16T16:14:35.148Z,10.80
2022-12-16T16:20:00.137Z,10.77
2022-12-16T16:25:24.613Z,11.27
2022-12-16T16:30:46.522Z,11.23
2022-12-16T16:36:06.811Z,10.00
2022-12-16T16:41:34.707Z,11.90
2022-12-16T16:46:57.801Z,11.87
2022-12-16T16:52:14.802Z,12.60
2022-12-16T16:57:35.620Z,11.33
2022-12-16T17:02:57.218Z,12.73
2022-12-16T17:08:17.459Z,14.27
2022-12-16T17:13:39.988Z,12.90
2022-12-16T17:19:01.464Z,12.33
2022-12-16T17:24:22.278Z,13.10
2022-12-16T17:29:43.260Z,12.27
2022-12-16T17:35:04.737Z,12.23
2022-12-16T17:40:25.921Z,13.20
2022-12-16T17:45:45.980Z,13.73
2022-12-16T17:51:07.987Z,14.30
2022-12-16T17:56:28.225Z,17.57
2022-12-16T18:01:48.617Z,17.33
2022-12-16T18:07:10.417Z,17.03
2022-12-16T18:12:30.687Z,17.63
2022-12-16T18:17:50.955Z,16.87
2022-12-16T18:23:12.839Z,16.73
2022-12-16T18:28:33.276Z,16.40
2022-12-16T18:33:53.432Z,16.87
2022-12-16T18:39:15.068Z,18.33
2022-12-16T18:44:35.343Z,15.00
2022-12-16T18:49:55.476Z,15.53
2022-12-16T18:55:16.976Z,15.03
2022-12-16T19:00:37.177Z,16.73
2022-12-16T19:05:57.665Z,16.47
2022-12-16T19:11:19.118Z,16.90
2022-12-16T19:16:39.720Z,17.13
2022-12-16T19:22:00.223Z,15.87
2022-12-16T19:27:21.869Z,16.77
2022-12-16T19:32:42.276Z,15.53
2022-12-16T19:38:02.746Z,16.77
2022-12-16T19:43:24.280Z,15.60
2022-12-16T19:48:44.715Z,16.57
2022-12-16T19:54:05.651Z,16.93
2022-12-16T19:59:27.024Z,16.93
2022-12-16T20:04:47.257Z,17.20
2022-12-16T20:10:07.521Z,15.30
2022-12-16T20:15:29.370Z,15.93
2022-12-16T20:20:49.935Z,17.83
2022-12-16T20:26:14.110Z,18.57
2022-12-16T20:31:35.798Z,16.83
2022-12-16T20:36:55.834Z,17.00
2022-12-16T20:42:16.500Z,15.93
2022-12-16T20:47:38.187Z,16.73
2022-12-16T20:52:58.526Z,16.10
2022-12-16T20:58:19.197Z,15.23
2022-12-16T21:03:41.334Z,17.20
2022-12-16T21:09:02.091Z,15.53
2022-12-16T21:14:22.762Z,15.90
2022-12-16T21:19:44.396Z,16.20
2022-12-16T21:25:04.781Z,14.97
2022-12-16T21:30:26.385Z,14.73
2022-12-16T21:35:47.872Z,15.37
2022-12-16T21:41:09.840Z,15.43
2022-12-16T21:46:30.420Z,13.90
2022-12-16T21:51:51.039Z,15.03
2022-12-16T21:57:12.189Z,14.17
2022-12-16T22:02:33.137Z,14.90
2022-12-16T22:13:36.263Z,14.07
2022-12-16T22:18:56.823Z,15.13
2022-12-16T22:24:18.642Z,14.50
2022-12-16T22:29:38.631Z,15.20
2022-12-16T22:34:58.916Z,14.07
2022-12-16T22:40:20.652Z,14.80
2022-12-16T22:45:41.206Z,15.40
2022-12-16T22:51:01.968Z,14.13
2022-12-16T22:56:24.120Z,14.30
2022-12-16T23:01:45.244Z,14.87
2022-12-16T23:07:05.733Z,14.30
2022-12-16T23:12:27.656Z,14.40
2022-12-16T23:17:47.776Z,14.47
2022-12-16T23:23:08.081Z,13.80
2022-12-16T23:28:29.563Z,13.87
2022-12-16T23:33:53.017Z,14.97
2022-12-16T23:39:17.520Z,14.87
2022-12-16T23:44:39.071Z,13.37
2022-12-16T23:49:56.749Z,13.70
2022-12-16T23:55:17.247Z,13.17
